createdAt,value
2019-01-09T00:01:16.523Z,73.04
2019-01-09T00:03:43.728Z,72.20
2019-01-09T00:06:11.056Z,69.93
2019-01-09T00:08:38.295Z,69.71
2019-01-09T00:11:05.505Z,69.78
2019-01-09T00:13:32.729Z,70.59
2019-01-09T00:15:59.968Z,67.67
2019-01-09T00:18:27.685Z,66.02
2019-01-09T00:20:54.932Z,65.91
2019-01-09T00:23:22.168Z,65.58
2019-01-09T00:25:49.410Z,66.53
2019-01-09T00:28:16.663Z,67.48
2019-01-09T00:30:44.024Z,68.08
2019-01-09T00:33:11.219Z,68.86
2019-01-09T00:35:38.774Z,68.71
2019-01-09T00:38:08.889Z,68.67
2019-01-09T00:40:36.103Z,68.53
2019-01-09T00:43:04.573Z,68.49
2019-01-09T00:45:31.838Z,68.53
2019-01-09T00:47:59.053Z,68.60
2019-01-09T00:50:26.385Z,68.91
2019-01-09T00:52:53.640Z,68.55
2019-01-09T00:55:21.029Z,68.97
2019-01-09T00:57:48.326Z,69.11
2019-01-09T01:00:17.109Z,69.25
2019-01-09T01:02:57.087Z,68.93
2019-01-09T01:06:18.016Z,69.38
2019-01-09T01:09:39.568Z,69.92
2019-01-09T01:12:54.532Z,69.27
2019-01-09T01:15:58.477Z,69.31
2019-01-09T01:19:03.926Z,70.10
2019-01-09T01:21:58.736Z,70.34
2019-01-09T01:24:58.063Z,70.90
2019-01-09T01:27:54.636Z,71.47
2019-01-09T01:30:58.558Z,71.93
2019-01-09T01:33:49.334Z,71.84
2019-01-09T01:37:02.116Z,71.51
2019-01-09T01:39:52.745Z,70.98
2019-01-09T01:42:37.958Z,70.97
2019-01-09T01:45:28.696Z,70.16
2019-01-09T01:48:21.320Z,70.06
2019-01-09T01:51:23.226Z,70.72
2019-01-09T01:54:32.005Z,71.34
2019-01-09T01:57:32.010Z,71.75
2019-01-09T02:00:34.843Z,71.52
2019-01-09T02:03:29.493Z,71.93
2019-01-09T02:06:27.170Z,71.64
2019-01-09T02:09:37.798Z,71.09
2019-01-09T02:12:56.133Z,70.33
2019-01-09T02:16:08.555Z,70.17
2019-01-09T02:19:02.231Z,70.87
2019-01-09T02:21:47.907Z,70.80
2019-01-09T02:24:59.179Z,70.68
2019-01-09T02:27:44.423Z,71.24
2019-01-09T02:30:53.244Z,71.22
2019-01-09T02:33:20.548Z,70.27
2019-01-09T02:35:48.342Z,60.42
2019-01-09T02:38:15.592Z,58.98
2019-01-09T02:40:42.917Z,60.65
2019-01-09T02:43:10.129Z,62.51
2019-01-09T02:45:37.350Z,65.12
2019-01-09T02:48:04.698Z,67.78
2019-01-09T02:50:31.932Z,67.87
2019-01-09T02:52:59.187Z,67.14
2019-01-09T02:55:26.420Z,65.71
2019-01-09T02:57:56.898Z,67.06
2019-01-09T03:00:23.077Z,67.83
2019-01-09T03:02:50.303Z,68.22
2019-01-09T03:05:17.623Z,68.96
2019-01-09T03:07:44.837Z,69.96
2019-01-09T03:10:12.464Z,70.92
2019-01-09T03:12:39.757Z,71.10
2019-01-09T03:15:07.314Z,71.68
2019-01-09T03:17:34.510Z,72.21
2019-01-09T03:20:02.689Z,72.43
2019-01-09T03:22:32.014Z,72.92
2019-01-09T03:24:59.245Z,72.88
2019-01-09T03:27:26.499Z,72.94
2019-01-09T03:29:53.773Z,72.13
2019-01-09T03:32:21.041Z,71.37
2019-01-09T03:34:48.313Z,70.55
2019-01-09T03:37:15.527Z,69.99
2019-01-09T03:39:42.966Z,69.80
2019-01-09T03:42:10.208Z,70.01
2019-01-09T03:44:37.484Z,70.11
2019-01-09T03:47:04.709Z,70.63
2019-01-09T03:49:32.065Z,71.18
2019-01-09T03:51:59.492Z,71.91
2019-01-09T03:54:26.808Z,72.42
2019-01-09T03:56:54.328Z,72.13
2019-01-09T03:59:21.568Z,71.53
2019-01-09T04:01:48.985Z,70.83
2019-01-09T04:04:16.221Z,70.63
2019-01-09T04:06:43.455Z,71.17
2019-01-09T04:09:10.707Z,71.59
2019-01-09T04:11:37.979Z,71.81
2019-01-09T04:14:05.205Z,71.42
2019-01-09T04:16:32.435Z,69.74
2019-01-09T04:18:59.674Z,70.23
2019-01-09T04:21:27.077Z,70.15
2019-01-09T04:23:54.355Z,69.87
2019-01-09T04:26:21.551Z,69.72
2019-01-09T04:28:48.831Z,69.78
2019-01-09T04:31:16.065Z,69.53
2019-01-09T04:33:43.329Z,69.61
2019-01-09T04:36:10.535Z,70.03
2019-01-09T04:38:37.787Z,70.24
2019-01-09T04:41:05.126Z,70.74
2019-01-09T04:43:32.448Z,70.87
2019-01-09T04:45:59.699Z,71.65
2019-01-09T04:48:26.902Z,72.28
2019-01-09T04:50:54.124Z,73.02
2019-01-09T04:53:21.399Z,73.18
2019-01-09T04:55:48.586Z,73.06
2019-01-09T04:58:16.141Z,73.12
2019-01-09T05:00:43.374Z,72.83
2019-01-09T05:03:10.591Z,73.21
2019-01-09T05:05:37.797Z,73.45
2019-01-09T05:08:05.148Z,73.62
2019-01-09T05:10:32.405Z,74.04
2019-01-09T05:12:59.615Z,73.88
2019-01-09T05:15:26.878Z,73.27
2019-01-09T05:17:54.120Z,72.53
2019-01-09T05:20:21.387Z,72.56
2019-01-09T05:22:48.584Z,71.64
2019-01-09T05:25:15.825Z,71.20
2019-01-09T05:27:43.119Z,71.29
2019-01-09T05:30:10.346Z,71.54
2019-01-09T05:32:37.928Z,71.30
2019-01-09T05:35:05.145Z,71.44
2019-01-09T05:37:32.377Z,71.65
2019-01-09T05:39:59.621Z,71.71
2019-01-09T05:42:26.872Z,72.10
2019-01-09T05:44:57.774Z,72.34
2019-01-09T05:47:25.241Z,72.75
2019-01-09T05:49:52.481Z,71.84
2019-01-09T05:52:19.776Z,70.39
2019-01-09T05:54:47.028Z,67.40
2019-01-09T05:57:14.264Z,65.99
2019-01-09T05:59:41.499Z,64.85
2019-01-09T06:02:08.720Z,63.88
2019-01-09T06:04:35.943Z,63.37
2019-01-09T06:07:03.219Z,62.63
2019-01-09T06:09:30.479Z,62.21
2019-01-09T06:11:57.682Z,62.72
2019-01-09T06:14:24.924Z,62.73
2019-01-09T06:16:52.155Z,63.33
2019-01-09T06:19:19.818Z,62.48
2019-01-09T06:21:48.228Z,62.48
2019-01-09T06:24:15.454Z,62.25
2019-01-09T06:26:42.812Z,62.28
2019-01-09T06:29:10.056Z,62.47
2019-01-09T06:31:37.341Z,62.57
2019-01-09T06:34:04.647Z,62.82
2019-01-09T06:36:31.887Z,63.12
2019-01-09T06:38:59.129Z,63.39
2019-01-09T06:41:26.339Z,63.02
2019-01-09T06:43:53.568Z,63.39
2019-01-09T06:46:20.801Z,63.58
2019-01-09T06:49:07.819Z,63.68
2019-01-09T06:51:36.970Z,64.24
2019-01-09T06:54:04.256Z,64.34
2019-01-09T06:56:31.429Z,64.19
2019-01-09T06:58:58.701Z,63.43
2019-01-09T07:01:25.905Z,63.17
2019-01-09T07:03:53.249Z,61.90
2019-01-09T07:06:20.801Z,61.73
2019-01-09T07:08:48.042Z,61.62
2019-01-09T07:11:15.259Z,61.89
2019-01-09T07:13:42.627Z,62.21
2019-01-09T07:16:09.875Z,61.98
2019-01-09T07:18:37.216Z,61.05
2019-01-09T07:21:04.682Z,60.97
2019-01-09T07:23:31.906Z,61.77
2019-01-09T07:25:59.156Z,62.42
2019-01-09T07:28:26.403Z,63.17
2019-01-09T07:30:54.031Z,63.45
2019-01-09T07:33:21.355Z,63.86
2019-01-09T07:35:48.605Z,63.53
2019-01-09T07:38:15.845Z,63.62
2019-01-09T07:40:43.070Z,63.64
2019-01-09T07:43:10.342Z,63.50
2019-01-09T07:45:38.046Z,62.89
2019-01-09T07:48:05.449Z,63.21
2019-01-09T07:50:32.772Z,63.37
2019-01-09T07:53:00.072Z,64.06
2019-01-09T07:55:27.695Z,64.17
2019-01-09T07:57:54.926Z,63.90
2019-01-09T08:00:22.204Z,63.97
2019-01-09T08:02:49.711Z,63.72
2019-01-09T08:05:16.967Z,63.83
2019-01-09T08:07:44.226Z,64.22
2019-01-09T08:10:11.470Z,64.32
2019-01-09T08:12:38.744Z,64.59
2019-01-09T08:15:07.111Z,64.85
2019-01-09T08:17:34.345Z,64.72
2019-01-09T08:20:01.571Z,65.77
2019-01-09T08:22:29.824Z,66.26
2019-01-09T08:24:58.006Z,66.66
2019-01-09T08:27:25.329Z,66.68
2019-01-09T08:29:52.549Z,66.06
2019-01-09T08:32:19.841Z,65.89
2019-01-09T08:34:47.116Z,65.33
2019-01-09T08:37:14.469Z,63.30
2019-01-09T08:39:41.686Z,62.65
2019-01-09T08:42:09.081Z,62.29
2019-01-09T08:44:36.359Z,62.32
2019-01-09T08:47:03.663Z,63.11
2019-01-09T08:49:30.975Z,63.62
2019-01-09T08:51:58.213Z,63.42
2019-01-09T08:54:25.446Z,63.02
2019-01-09T08:56:52.696Z,62.54
2019-01-09T08:59:19.918Z,62.59
2019-01-09T09:01:47.140Z,63.39
2019-01-09T09:04:14.389Z,63.87
2019-01-09T09:06:41.635Z,64.48
2019-01-09T09:09:08.970Z,64.59
2019-01-09T09:11:36.208Z,64.55
2019-01-09T09:14:05.039Z,64.30
2019-01-09T09:16:36.701Z,64.12
2019-01-09T09:19:04.607Z,63.22
2019-01-09T09:21:32.061Z,62.88
2019-01-09T09:24:00.758Z,62.69
2019-01-09T09:26:28.071Z,61.31
2019-01-09T09:28:55.313Z,61.89
2019-01-09T09:31:22.563Z,61.48
2019-01-09T09:33:49.976Z,60.94
2019-01-09T09:36:17.393Z,60.62
2019-01-09T09:38:49.735Z,61.51
2019-01-09T09:41:18.964Z,61.91
2019-01-09T09:43:46.262Z,61.30
2019-01-09T09:46:13.491Z,61.29
2019-01-09T09:48:40.697Z,60.48
2019-01-09T09:51:07.982Z,59.27
2019-01-09T09:53:35.602Z,60.27
2019-01-09T09:56:02.854Z,60.18
2019-01-09T09:58:30.132Z,60.95
2019-01-09T10:00:57.346Z,60.88
2019-01-09T10:03:24.579Z,60.34
2019-01-09T10:05:51.828Z,61.00
2019-01-09T10:08:19.129Z,60.71
2019-01-09T10:10:47.077Z,61.44
2019-01-09T10:13:14.360Z,60.41
2019-01-09T10:15:41.565Z,61.11
2019-01-09T10:18:08.856Z,61.44
2019-01-09T10:20:36.102Z,62.01
2019-01-09T10:23:03.843Z,59.89
2019-01-09T10:25:31.102Z,58.32
2019-01-09T10:28:02.649Z,58.31
2019-01-09T10:30:30.351Z,59.28
2019-01-09T10:32:57.705Z,59.96
2019-01-09T10:35:24.988Z,60.51
2019-01-09T10:37:52.237Z,59.47
2019-01-09T10:40:19.823Z,60.37
2019-01-09T10:42:50.817Z,61.14
2019-01-09T10:45:19.776Z,61.16
2019-01-09T10:47:47.031Z,60.92
2019-01-09T10:50:15.164Z,60.02
2019-01-09T10:52:42.389Z,60.90
2019-01-09T10:55:10.644Z,61.27
2019-01-09T10:57:37.921Z,59.62
2019-01-09T11:00:08.345Z,59.89
2019-01-09T11:02:35.625Z,60.76
2019-01-09T11:05:03.821Z,59.70
2019-01-09T11:07:33.409Z,59.80
2019-01-09T11:10:00.681Z,60.33
2019-01-09T11:12:28.054Z,61.25
2019-01-09T11:14:55.541Z,61.93
2019-01-09T11:17:22.850Z,62.63
2019-01-09T11:19:50.205Z,63.42
2019-01-09T11:22:17.433Z,64.22
2019-01-09T11:24:44.763Z,64.10
2019-01-09T11:27:11.995Z,63.95
2019-01-09T11:29:39.443Z,63.00
2019-01-09T11:32:06.874Z,63.80
2019-01-09T11:34:34.227Z,61.63
2019-01-09T11:37:01.583Z,61.75
2019-01-09T11:39:28.840Z,60.49
2019-01-09T11:41:56.085Z,59.64
2019-01-09T11:44:23.603Z,59.30
2019-01-09T11:46:50.861Z,59.32
2019-01-09T11:49:18.087Z,58.03
2019-01-09T11:51:45.455Z,57.80
2019-01-09T11:54:12.714Z,59.75
2019-01-09T11:56:39.995Z,60.11
2019-01-09T11:59:07.269Z,61.54
2019-01-09T12:01:34.485Z,60.41
2019-01-09T12:04:01.777Z,59.23
2019-01-09T12:06:30.495Z,59.59
2019-01-09T12:09:04.430Z,60.32
2019-01-09T12:11:26.876Z,59.61
2019-01-09T12:13:54.116Z,59.44
2019-01-09T12:16:21.329Z,60.54
2019-01-09T12:18:48.626Z,59.27
2019-01-09T12:21:16.903Z,59.21
2019-01-09T12:23:44.364Z,58.26
2019-01-09T12:26:11.722Z,58.34
2019-01-09T12:28:38.965Z,58.90
2019-01-09T12:31:06.242Z,58.55
2019-01-09T12:33:33.594Z,58.10
2019-01-09T12:36:00.964Z,59.10
2019-01-09T12:38:28.233Z,60.05
2019-01-09T12:40:56.869Z,60.00
2019-01-09T12:43:24.164Z,59.58
2019-01-09T12:45:51.488Z,58.14
2019-01-09T12:48:18.917Z,57.00
2019-01-09T12:50:46.219Z,56.95
2019-01-09T12:53:13.663Z,57.87
2019-01-09T12:55:40.908Z,58.68
2019-01-09T12:58:08.185Z,59.87
2019-01-09T13:00:35.429Z,59.17
2019-01-09T13:03:05.701Z,59.82
2019-01-09T13:05:33.011Z,59.28
2019-01-09T13:08:00.252Z,57.55
2019-01-09T13:10:27.498Z,57.76
2019-01-09T13:12:54.903Z,58.49
2019-01-09T13:15:22.163Z,59.52
2019-01-09T13:17:49.463Z,58.12
2019-01-09T13:20:17.283Z,58.10
2019-01-09T13:22:44.628Z,58.14
2019-01-09T13:25:12.865Z,58.80
2019-01-09T13:27:40.196Z,58.17
2019-01-09T13:30:13.347Z,58.43
2019-01-09T13:32:40.736Z,58.61
2019-01-09T13:35:08.315Z,59.98
2019-01-09T13:37:35.655Z,60.80
2019-01-09T13:40:04.081Z,58.40
2019-01-09T13:42:31.393Z,58.43
2019-01-09T13:44:58.714Z,58.44
2019-01-09T13:47:25.990Z,58.04
2019-01-09T13:49:53.243Z,59.14
2019-01-09T13:52:20.466Z,60.62
2019-01-09T13:54:47.704Z,60.26
2019-01-09T13:57:15.010Z,58.96
2019-01-09T13:59:42.289Z,60.30
2019-01-09T14:02:09.524Z,61.17
2019-01-09T14:04:36.798Z,60.17
2019-01-09T14:07:04.252Z,59.91
2019-01-09T14:09:39.218Z,60.79
2019-01-09T14:12:00.591Z,61.79
2019-01-09T14:14:27.992Z,62.43
2019-01-09T14:16:55.261Z,61.76
2019-01-09T14:19:22.550Z,60.14
2019-01-09T14:21:49.782Z,60.88
2019-01-09T14:24:17.038Z,61.62
2019-01-09T14:26:44.361Z,61.96
2019-01-09T14:29:11.605Z,61.54
2019-01-09T14:31:38.943Z,60.66
2019-01-09T14:34:06.281Z,59.52
2019-01-09T14:36:33.574Z,60.32
2019-01-09T14:39:00.839Z,61.27
2019-01-09T14:41:28.170Z,61.75
2019-01-09T14:43:55.409Z,61.95
2019-01-09T14:46:22.826Z,61.74
2019-01-09T14:48:50.099Z,62.46
2019-01-09T14:51:17.365Z,64.02
2019-01-09T14:53:44.692Z,60.72
2019-01-09T14:56:11.932Z,61.31
2019-01-09T14:58:39.197Z,62.43
2019-01-09T15:01:06.478Z,61.66
2019-01-09T15:03:33.737Z,60.05
2019-01-09T15:06:01.054Z,60.02
2019-01-09T15:08:28.345Z,60.77
2019-01-09T15:10:55.662Z,59.60
2019-01-09T15:13:22.947Z,60.25
2019-01-09T15:15:50.204Z,61.16
2019-01-09T15:18:20.235Z,60.26
2019-01-09T15:20:47.454Z,60.03
2019-01-09T15:23:15.380Z,60.30
2019-01-09T15:25:42.627Z,60.58
2019-01-09T15:28:09.974Z,61.00
2019-01-09T15:30:40.251Z,61.84
2019-01-09T15:33:07.514Z,61.23
2019-01-09T15:35:35.070Z,61.11
2019-01-09T15:38:02.977Z,60.56
2019-01-09T15:40:37.980Z,60.63
2019-01-09T15:43:05.858Z,60.34
2019-01-09T15:45:33.069Z,60.45
2019-01-09T15:48:00.337Z,60.15
2019-01-09T15:50:31.408Z,60.16
2019-01-09T15:52:58.980Z,60.70
2019-01-09T15:55:26.230Z,61.51
2019-01-09T15:57:54.015Z,61.68
2019-01-09T16:00:24.063Z,61.66
2019-01-09T16:02:52.815Z,61.05
2019-01-09T16:05:20.148Z,60.79
2019-01-09T16:07:47.624Z,59.95
2019-01-09T16:10:15.535Z,60.46
2019-01-09T16:12:43.206Z,61.19
2019-01-09T16:15:12.404Z,61.91
2019-01-09T16:17:39.699Z,62.76
2019-01-09T16:20:16.312Z,62.18
2019-01-09T16:22:37.433Z,61.20
2019-01-09T16:25:05.793Z,61.80
2019-01-09T16:27:33.032Z,62.40
2019-01-09T16:30:00.798Z,61.31
2019-01-09T16:32:28.145Z,60.31
2019-01-09T16:34:55.448Z,60.83
2019-01-09T16:37:22.698Z,61.66
2019-01-09T16:39:49.926Z,62.58
2019-01-09T16:42:17.235Z,62.95
2019-01-09T16:44:45.513Z,63.55
2019-01-09T16:47:12.776Z,63.99
2019-01-09T16:49:40.318Z,63.59
2019-01-09T16:52:08.955Z,63.25
2019-01-09T16:54:36.227Z,62.90
2019-01-09T16:57:03.798Z,62.10
2019-01-09T16:59:31.124Z,62.25
2019-01-09T17:01:58.356Z,62.86
2019-01-09T17:04:25.926Z,63.58
2019-01-09T17:06:53.214Z,63.51
2019-01-09T17:09:20.509Z,63.79
2019-01-09T17:11:47.909Z,63.79
2019-01-09T17:14:15.222Z,62.77
2019-01-09T17:16:43.063Z,62.90
2019-01-09T17:19:10.458Z,63.27
2019-01-09T17:21:37.763Z,63.33
2019-01-09T17:24:04.996Z,64.00
2019-01-09T17:26:32.216Z,64.62
2019-01-09T17:28:59.469Z,64.79
2019-01-09T17:31:27.041Z,64.89
2019-01-09T17:33:54.271Z,64.55
2019-01-09T17:36:22.429Z,64.56
2019-01-09T17:38:49.682Z,64.90
2019-01-09T17:41:16.892Z,64.57
2019-01-09T17:43:44.144Z,65.10
2019-01-09T17:46:12.069Z,65.39
2019-01-09T17:48:39.313Z,65.35
2019-01-09T17:51:06.623Z,65.30
2019-01-09T17:53:33.859Z,66.05
2019-01-09T17:56:01.125Z,66.71
2019-01-09T17:58:28.809Z,66.51
2019-01-09T18:00:56.191Z,66.10
2019-01-09T18:03:23.801Z,65.88
2019-01-09T18:05:52.816Z,65.73
2019-01-09T18:08:22.268Z,65.24
2019-01-09T18:10:50.669Z,65.17
2019-01-09T18:13:18.031Z,65.65
2019-01-09T18:15:45.799Z,66.21
2019-01-09T18:18:13.053Z,65.91
2019-01-09T18:20:40.693Z,66.08
2019-01-09T18:23:08.073Z,66.20
2019-01-09T18:25:35.375Z,66.25
2019-01-09T18:28:02.623Z,65.53
2019-01-09T18:30:36.362Z,65.38
2019-01-09T18:33:06.773Z,65.15
2019-01-09T18:36:22.053Z,65.18
2019-01-09T18:38:57.908Z,65.51
2019-01-09T18:42:18.571Z,65.18
2019-01-09T18:45:36.736Z,65.60
2019-01-09T18:48:47.134Z,65.63
2019-01-09T18:51:47.758Z,65.43
2019-01-09T18:54:15.034Z,65.17
2019-01-09T18:56:42.308Z,65.16
2019-01-09T18:59:09.898Z,64.96
2019-01-09T19:01:37.186Z,64.78
2019-01-09T19:04:04.456Z,64.33
2019-01-09T19:06:35.446Z,63.92
2019-01-09T19:09:00.939Z,64.08
2019-01-09T19:11:28.221Z,63.84
2019-01-09T19:13:55.530Z,63.98
2019-01-09T19:16:22.757Z,64.16
2019-01-09T19:18:50.060Z,64.20
2019-01-09T19:21:17.422Z,63.98
2019-01-09T19:23:44.797Z,64.28
2019-01-09T19:26:12.452Z,64.62
2019-01-09T19:28:39.702Z,64.42
2019-01-09T19:31:07.145Z,64.46
2019-01-09T19:33:34.545Z,64.69
2019-01-09T19:36:01.837Z,64.59
2019-01-09T19:38:29.048Z,64.91
2019-01-09T19:40:56.348Z,65.24
2019-01-09T19:43:24.886Z,65.07
2019-01-09T19:45:52.419Z,65.23
2019-01-09T19:48:19.662Z,65.53
2019-01-09T19:50:46.971Z,66.06
2019-01-09T19:53:16.281Z,66.87
2019-01-09T19:55:43.652Z,66.94
2019-01-09T19:58:10.975Z,66.90
2019-01-09T20:00:38.325Z,66.74
2019-01-09T20:03:05.651Z,66.15
2019-01-09T20:05:35.709Z,65.66
2019-01-09T20:08:03.255Z,65.26
2019-01-09T20:10:30.783Z,65.27
2019-01-09T20:12:58.080Z,65.11
2019-01-09T20:15:25.321Z,65.24
2019-01-09T20:17:52.645Z,65.37
2019-01-09T20:20:20.420Z,65.70
2019-01-09T20:22:49.126Z,65.49
2019-01-09T20:25:16.646Z,65.36
2019-01-09T20:27:43.893Z,65.48
2019-01-09T20:30:15.332Z,65.43
2019-01-09T20:32:42.801Z,65.86
2019-01-09T20:35:10.906Z,66.02
2019-01-09T20:37:38.420Z,66.04
2019-01-09T20:40:07.581Z,66.19
2019-01-09T20:42:34.828Z,66.09
2019-01-09T20:45:02.183Z,66.43
2019-01-09T20:47:30.805Z,66.56
2019-01-09T20:49:58.512Z,66.59
2019-01-09T20:52:27.062Z,66.59
2019-01-09T20:54:54.390Z,66.40
2019-01-09T20:57:21.740Z,66.16
2019-01-09T20:59:49.120Z,66.42
2019-01-09T21:02:16.435Z,66.18
2019-01-09T21:04:47.297Z,66.24
2019-01-09T21:07:14.729Z,66.08
2019-01-09T21:09:42.065Z,66.16
2019-01-09T21:12:09.586Z,66.36
2019-01-09T21:14:37.022Z,66.83
2019-01-09T21:17:04.338Z,67.13
2019-01-09T21:19:31.615Z,67.19
2019-01-09T21:21:58.897Z,67.12
2019-01-09T21:24:26.206Z,66.76
2019-01-09T21:26:53.427Z,66.55
2019-01-09T21:29:20.769Z,65.84
2019-01-09T21:31:48.072Z,65.04
2019-01-09T21:34:15.473Z,65.35
2019-01-09T21:36:42.766Z,65.72
2019-01-09T21:39:10.156Z,65.84
2019-01-09T21:41:37.397Z,66.14
2019-01-09T21:44:04.789Z,65.37
2019-01-09T21:46:33.451Z,65.22
2019-01-09T21:49:00.828Z,65.42
2019-01-09T21:51:30.645Z,66.02
2019-01-09T21:53:57.949Z,66.38
2019-01-09T21:56:25.174Z,66.50
2019-01-09T21:58:52.420Z,66.72
2019-01-09T22:01:19.910Z,67.25
2019-01-09T22:03:47.479Z,67.39
2019-01-09T22:06:14.845Z,67.05
2019-01-09T22:08:42.203Z,67.30
2019-01-09T22:11:09.557Z,67.28
2019-01-09T22:13:36.873Z,66.75
2019-01-09T22:16:04.366Z,66.68
2019-01-09T22:18:32.151Z,66.87
2019-01-09T22:20:59.366Z,67.19
2019-01-09T22:23:26.623Z,67.37
2019-01-09T22:25:54.021Z,67.84
2019-01-09T22:28:21.315Z,67.59
2019-01-09T22:30:48.572Z,67.86
2019-01-09T22:33:16.074Z,68.29
2019-01-09T22:35:43.468Z,68.17
2019-01-09T22:38:10.824Z,67.90
2019-01-09T22:40:38.066Z,67.57
2019-01-09T22:43:05.373Z,67.55
2019-01-09T22:45:32.607Z,67.54
2019-01-09T22:47:59.863Z,67.63
2019-01-09T22:50:27.407Z,67.52
2019-01-09T22:52:56.723Z,66.62
2019-01-09T22:55:23.972Z,66.35
2019-01-09T22:57:51.241Z,65.94
2019-01-09T23:01:01.576Z,66.16
2019-01-09T23:03:29.813Z,66.47
2019-01-09T23:05:57.036Z,66.33
2019-01-09T23:08:24.276Z,66.68
2019-01-09T23:10:54.734Z,67.05
2019-01-09T23:13:22.815Z,66.78
2019-01-09T23:15:50.528Z,66.31
2019-01-09T23:18:17.989Z,66.38
2019-01-09T23:20:45.215Z,66.69
2019-01-09T23:23:12.467Z,67.05
2019-01-09T23:25:42.645Z,66.98
2019-01-09T23:28:10.010Z,66.98
2019-01-09T23:30:37.356Z,67.11
2019-01-09T23:33:04.900Z,66.97
2019-01-09T23:35:32.285Z,67.08
2019-01-09T23:37:59.531Z,67.34
2019-01-09T23:40:30.294Z,67.35
2019-01-09T23:42:58.115Z,67.38
2019-01-09T23:45:25.453Z,67.83
2019-01-09T23:47:54.815Z,68.21
2019-01-09T23:50:24.467Z,67.71
2019-01-09T23:52:51.704Z,67.20
2019-01-09T23:55:22.495Z,66.94
2019-01-09T23:57:50.084Z,66.55
